createdAt,value
2022-09-07T00:02:28.764Z,4.63
2022-09-07T00:05:21.915Z,4.13
2022-09-07T00:08:14.556Z,4.07
2022-09-07T00:11:08.472Z,2.78
2022-09-07T00:14:00.081Z,4.38
2022-09-07T00:16:52.215Z,6.13
2022-09-07T00:19:43.799Z,4.40
2022-09-07T00:22:37.686Z,2.75
2022-09-07T00:25:31.955Z,4.40
2022-09-07T00:28:23.814Z,4.55
2022-09-07T00:31:16.858Z,9.20
2022-09-07T00:34:08.804Z,10.05
2022-09-07T00:37:00.546Z,4.78
2022-09-07T00:39:54.027Z,6.55
2022-09-07T00:42:45.711Z,6.32
2022-09-07T00:45:37.532Z,12.48
2022-09-07T00:48:34.718Z,3.70
2022-09-07T00:51:30.455Z,8.13
2022-09-07T00:54:26.979Z,4.35
2022-09-07T00:57:21.139Z,6.95
2022-09-07T01:00:13.157Z,4.88
2022-09-07T01:03:06.485Z,2.90
2022-09-07T01:06:03.452Z,5.57
2022-09-07T01:08:57.727Z,5.65
2022-09-07T01:11:51.027Z,7.65
2022-09-07T01:14:48.062Z,4.00
2022-09-07T01:18:00.208Z,4.72
2022-09-07T01:21:10.090Z,7.13
2022-09-07T01:24:34.181Z,5.40
2022-09-07T01:27:55.458Z,3.90
2022-09-07T01:30:55.355Z,3.47
2022-09-07T01:33:58.559Z,2.85
2022-09-07T01:36:56.136Z,3.95
2022-09-07T01:39:53.995Z,5.43
2022-09-07T01:42:52.392Z,8.77
2022-09-07T01:45:46.544Z,3.38
2022-09-07T01:48:41.845Z,6.05
2022-09-07T01:51:37.135Z,3.78
2022-09-07T01:54:33.848Z,3.45
2022-09-07T01:57:32.677Z,3.67
2022-09-07T02:03:21.134Z,4.97
2022-09-07T02:06:18.196Z,9.90
2022-09-07T02:09:15.955Z,4.15
2022-09-07T02:12:17.003Z,3.27
2022-09-07T02:15:14.326Z,3.90
2022-09-07T02:18:08.561Z,2.85
2022-09-07T02:21:02.797Z,3.78
2022-09-07T02:24:01.827Z,9.57
2022-09-07T02:26:56.900Z,5.90
2022-09-07T02:29:48.878Z,7.22
2022-09-07T02:32:40.589Z,5.38
2022-09-07T02:35:32.513Z,5.20
2022-09-07T02:38:24.723Z,7.47
2022-09-07T02:41:36.130Z,3.10
2022-09-07T02:44:31.728Z,4.72
2022-09-07T02:47:38.774Z,3.72
2022-09-07T02:51:08.329Z,3.20
2022-09-07T02:54:25.363Z,6.50
2022-09-07T02:57:27.438Z,6.65
2022-09-07T03:00:25.920Z,4.18
2022-09-07T03:03:24.642Z,4.97
2022-09-07T03:06:24.463Z,6.53
2022-09-07T03:09:19.887Z,8.65
2022-09-07T03:12:12.541Z,6.22
2022-09-07T03:15:06.954Z,7.28
2022-09-07T03:17:58.299Z,4.20
2022-09-07T03:20:50.356Z,8.02
2022-09-07T03:23:42.206Z,5.10
2022-09-07T03:26:34.058Z,7.22
2022-09-07T03:29:25.652Z,3.97
2022-09-07T03:32:18.623Z,5.13
2022-09-07T03:35:10.914Z,5.32
2022-09-07T03:38:02.926Z,5.68
2022-09-07T03:40:59.839Z,7.13
2022-09-07T03:43:51.359Z,5.20
2022-09-07T03:46:44.242Z,3.20
2022-09-07T03:49:37.243Z,5.68
2022-09-07T03:52:28.680Z,9.93
2022-09-07T03:55:20.525Z,5.70
2022-09-07T03:58:12.183Z,4.72
2022-09-07T04:01:07.568Z,8.77
2022-09-07T04:04:02.819Z,4.65
2022-09-07T04:06:56.322Z,10.45
2022-09-07T04:09:51.250Z,5.53
2022-09-07T04:12:43.252Z,8.43
2022-09-07T04:15:35.254Z,10.65
2022-09-07T04:18:27.460Z,5.65
2022-09-07T04:21:19.766Z,4.88
2022-09-07T04:24:13.062Z,4.35
2022-09-07T04:27:04.638Z,5.97
2022-09-07T04:29:56.223Z,6.53
2022-09-07T04:32:48.522Z,5.68
2022-09-07T04:35:41.003Z,5.82
2022-09-07T04:38:32.555Z,8.07
2022-09-07T04:41:26.231Z,7.05
2022-09-07T04:44:17.793Z,7.07
2022-09-07T04:47:09.380Z,11.40
2022-09-07T04:50:01.161Z,11.15
2022-09-07T04:52:52.687Z,10.05
2022-09-07T04:55:44.204Z,7.38
2022-09-07T04:58:37.237Z,10.65
2022-09-07T05:01:29.568Z,13.13
2022-09-07T05:04:21.462Z,7.30
2022-09-07T05:07:12.897Z,8.23
2022-09-07T05:10:05.496Z,8.50
2022-09-07T05:12:57.035Z,7.65
2022-09-07T05:15:50.501Z,5.75
2022-09-07T05:18:42.638Z,7.78
2022-09-07T05:21:35.515Z,7.43
2022-09-07T05:24:27.553Z,10.18
2022-09-07T05:27:19.622Z,13.90
2022-09-07T05:36:38.186Z,12.40
2022-09-07T05:39:30.323Z,13.05
2022-09-07T05:42:22.736Z,6.28
2022-09-07T05:45:14.740Z,14.50
2022-09-07T05:48:06.180Z,9.48
2022-09-07T05:50:59.376Z,7.75
2022-09-07T05:53:51.393Z,10.85
2022-09-07T05:56:43.396Z,6.68
2022-09-07T05:59:35.356Z,8.88
2022-09-07T06:02:27.113Z,11.20
2022-09-07T06:05:18.922Z,8.80
2022-09-07T06:08:12.136Z,6.80
2022-09-07T06:11:06.687Z,8.00
2022-09-07T06:13:58.533Z,13.75
2022-09-07T06:16:50.673Z,9.02
2022-09-07T06:19:42.564Z,7.65
2022-09-07T06:22:36.348Z,5.60
2022-09-07T06:25:29.816Z,8.65
2022-09-07T06:28:21.476Z,9.90
2022-09-07T06:31:15.959Z,6.32
2022-09-07T06:34:08.939Z,9.55
2022-09-07T06:37:00.707Z,7.80
2022-09-07T06:39:52.373Z,11.57
2022-09-07T06:42:45.897Z,9.50
2022-09-07T06:45:37.743Z,10.85
2022-09-07T06:48:30.223Z,8.40
2022-09-07T06:51:26.703Z,8.85
2022-09-07T06:57:30.439Z,12.55
2022-09-07T07:00:23.596Z,10.80
2022-09-07T07:03:15.261Z,6.97
2022-09-07T07:06:07.565Z,7.60
2022-09-07T07:08:59.094Z,12.63
2022-09-07T07:11:50.920Z,8.07
2022-09-07T07:14:45.025Z,15.23
2022-09-07T07:17:38.811Z,9.35
2022-09-07T07:20:30.319Z,14.38
2022-09-07T07:23:21.849Z,9.90
2022-09-07T07:26:15.872Z,9.80
2022-09-07T07:29:07.703Z,12.60
2022-09-07T07:31:59.186Z,12.55
2022-09-07T07:34:52.122Z,18.45
2022-09-07T07:37:43.807Z,7.65
2022-09-07T07:40:37.604Z,9.52
2022-09-07T07:43:31.580Z,12.65
2022-09-07T07:46:25.085Z,11.90
2022-09-07T07:49:17.070Z,12.02
2022-09-07T07:58:34.934Z,10.23
2022-09-07T08:01:26.478Z,9.15
2022-09-07T08:04:18.503Z,10.32
2022-09-07T08:07:12.970Z,7.13
2022-09-07T08:10:04.913Z,11.38
2022-09-07T08:12:57.368Z,10.75
2022-09-07T08:15:49.135Z,8.07
2022-09-07T08:18:46.360Z,14.00
2022-09-07T08:21:38.883Z,10.93
2022-09-07T08:24:32.234Z,11.80
2022-09-07T08:27:24.189Z,8.00
2022-09-07T08:30:16.072Z,11.38
2022-09-07T08:33:07.655Z,13.25
2022-09-07T08:36:01.118Z,9.65
2022-09-07T08:38:52.987Z,9.45
2022-09-07T08:42:19.064Z,10.02
2022-09-07T08:45:15.736Z,20.08
2022-09-07T08:48:08.155Z,10.18
2022-09-07T08:51:05.274Z,11.38
2022-09-07T08:53:57.383Z,7.38
2022-09-07T09:00:08.671Z,6.38
2022-09-07T09:06:20.283Z,10.65
2022-09-07T09:09:22.917Z,12.40
2022-09-07T09:12:25.001Z,7.78
2022-09-07T09:15:22.161Z,9.32
2022-09-07T09:18:24.742Z,9.25
2022-09-07T09:21:19.850Z,8.75
2022-09-07T09:24:15.771Z,13.57
2022-09-07T09:27:07.753Z,12.48
2022-09-07T09:29:59.141Z,16.83
2022-09-07T09:33:12.412Z,8.35
2022-09-07T09:36:04.108Z,8.85
2022-09-07T09:38:56.355Z,9.20
2022-09-07T09:41:49.395Z,8.88
2022-09-07T09:44:43.338Z,7.75
2022-09-07T09:47:36.975Z,8.95
2022-09-07T09:53:54.425Z,10.10
2022-09-07T09:56:48.975Z,8.45
2022-09-07T09:59:57.976Z,8.35
2022-09-07T10:06:19.715Z,7.80
2022-09-07T10:09:21.423Z,7.43
2022-09-07T10:12:26.680Z,9.85
2022-09-07T10:15:27.335Z,9.55
2022-09-07T10:18:22.027Z,7.68
2022-09-07T10:21:26.411Z,7.50
2022-09-07T10:24:26.120Z,7.18
2022-09-07T10:27:29.281Z,10.18
2022-09-07T10:30:21.046Z,4.75
2022-09-07T10:33:19.327Z,12.77
2022-09-07T10:36:16.453Z,9.85
2022-09-07T10:39:15.619Z,9.52
2022-09-07T10:45:16.146Z,8.00
2022-09-07T10:48:15.136Z,6.63
2022-09-07T10:54:34.568Z,9.00
2022-09-07T10:57:39.650Z,14.02
2022-09-07T11:00:39.376Z,7.60
2022-09-07T11:03:50.011Z,11.52
2022-09-07T11:06:44.181Z,8.13
2022-09-07T11:09:52.884Z,9.10
2022-09-07T11:12:45.968Z,7.60
2022-09-07T11:15:44.141Z,12.68
2022-09-07T11:18:40.588Z,7.43
2022-09-07T11:28:17.581Z,9.30
2022-09-07T11:31:19.611Z,9.88
2022-09-07T11:34:26.283Z,7.60
2022-09-07T11:37:23.031Z,9.40
2022-09-07T11:40:23.596Z,9.10
2022-09-07T11:43:21.689Z,7.72
2022-09-07T11:46:18.308Z,8.10
2022-09-07T11:49:17.334Z,5.88
2022-09-07T11:52:20.090Z,8.55
2022-09-07T11:55:19.684Z,8.32
2022-09-07T11:58:35.828Z,10.60
2022-09-07T12:01:37.976Z,7.90
2022-09-07T12:05:00.474Z,8.32
2022-09-07T12:08:15.355Z,7.95
2022-09-07T12:11:24.267Z,8.23
2022-09-07T12:17:33.736Z,5.65
2022-09-07T12:20:38.979Z,9.35
2022-09-07T12:23:32.463Z,10.52
2022-09-07T12:26:52.508Z,9.05
2022-09-07T12:29:45.784Z,8.73
2022-09-07T12:33:04.403Z,9.73
2022-09-07T12:35:58.920Z,7.38
2022-09-07T12:39:07.311Z,4.93
2022-09-07T12:45:51.427Z,5.10
2022-09-07T12:48:51.796Z,8.95
2022-09-07T12:52:15.186Z,8.70
2022-09-07T12:55:29.266Z,6.63
2022-09-07T12:58:36.718Z,9.57
2022-09-07T13:01:37.651Z,11.85
2022-09-07T13:04:52.631Z,6.65
2022-09-07T13:08:09.102Z,7.82
2022-09-07T13:11:18.009Z,6.47
2022-09-07T13:14:21.032Z,5.95
2022-09-07T13:17:43.162Z,8.05
2022-09-07T13:20:39.859Z,7.97
2022-09-07T13:23:34.199Z,6.35
2022-09-07T13:26:53.635Z,7.43
2022-09-07T13:29:50.696Z,7.85
2022-09-07T13:35:59.017Z,7.75
2022-09-07T13:38:51.853Z,7.75
2022-09-07T13:41:47.684Z,6.35
2022-09-07T13:44:40.061Z,7.70
2022-09-07T13:47:53.960Z,7.13
2022-09-07T13:50:53.564Z,11.20
2022-09-07T13:53:57.611Z,9.77
2022-09-07T13:56:57.937Z,6.65
2022-09-07T13:59:52.840Z,10.07
2022-09-07T14:02:45.391Z,8.02
2022-09-07T14:05:38.606Z,11.18
2022-09-07T14:08:32.012Z,7.22
2022-09-07T14:11:26.019Z,9.85
2022-09-07T14:14:20.373Z,8.02
2022-09-07T14:17:16.158Z,9.90
2022-09-07T14:20:15.507Z,10.52
2022-09-07T14:23:17.122Z,9.73
2022-09-07T14:26:16.594Z,10.13
2022-09-07T14:29:23.314Z,9.82
2022-09-07T14:32:18.774Z,8.18
2022-09-07T14:35:12.585Z,7.70
2022-09-07T14:38:08.215Z,8.55
2022-09-07T14:41:03.569Z,10.63
2022-09-07T14:43:56.750Z,7.43
2022-09-07T14:46:54.646Z,9.38
2022-09-07T14:49:52.073Z,8.10
2022-09-07T14:53:33.900Z,20.80
2022-09-07T14:56:04.008Z,9.07
2022-09-07T14:58:55.768Z,6.35
2022-09-07T15:01:47.695Z,7.00
2022-09-07T15:04:39.723Z,8.60
2022-09-07T15:07:38.972Z,10.60
2022-09-07T15:13:34.217Z,5.85
2022-09-07T15:16:28.332Z,7.10
2022-09-07T15:19:31.418Z,7.50
2022-09-07T15:22:23.369Z,7.90
2022-09-07T15:25:15.324Z,8.65
2022-09-07T15:28:07.459Z,5.75
2022-09-07T15:34:13.631Z,7.55
2022-09-07T15:38:00.950Z,9.70
2022-09-07T15:40:20.604Z,9.70
2022-09-07T15:43:20.359Z,12.88
2022-09-07T15:46:14.657Z,8.93
2022-09-07T15:49:06.486Z,11.70
2022-09-07T15:52:05.510Z,8.02
2022-09-07T15:54:57.651Z,6.35
2022-09-07T15:57:54.566Z,7.28
2022-09-07T16:01:51.523Z,13.23
2022-09-07T16:04:04.671Z,9.25
2022-09-07T16:06:56.740Z,9.45
2022-09-07T16:09:48.927Z,7.47
2022-09-07T16:13:01.172Z,7.15
2022-09-07T16:15:54.209Z,5.47
2022-09-07T16:18:47.194Z,6.20
2022-09-07T16:21:41.059Z,8.07
2022-09-07T16:24:34.040Z,15.05
2022-09-07T16:27:28.111Z,5.32
2022-09-07T16:30:22.301Z,7.47
2022-09-07T16:33:14.266Z,6.43
2022-09-07T16:36:09.176Z,6.03
2022-09-07T16:39:03.075Z,8.35
2022-09-07T16:41:55.061Z,5.93
2022-09-07T16:44:46.826Z,8.30
2022-09-07T16:47:38.431Z,5.53
2022-09-07T16:50:29.913Z,7.05
2022-09-07T16:53:21.795Z,8.20
2022-09-07T16:56:17.004Z,6.35
2022-09-07T16:59:10.228Z,6.28
2022-09-07T17:02:02.168Z,6.60
2022-09-07T17:04:53.727Z,12.10
2022-09-07T17:07:45.096Z,8.40
2022-09-07T17:10:36.918Z,7.13
2022-09-07T17:13:31.341Z,7.03
2022-09-07T17:16:24.860Z,6.60
2022-09-07T17:19:32.671Z,8.25
2022-09-07T17:22:26.312Z,10.13
2022-09-07T17:25:18.135Z,8.38
2022-09-07T17:28:10.173Z,10.82
2022-09-07T17:31:07.956Z,11.90
2022-09-07T17:34:01.467Z,7.97
2022-09-07T17:36:52.888Z,9.80
2022-09-07T17:39:44.554Z,10.13
2022-09-07T17:45:47.891Z,9.73
2022-09-07T17:48:40.597Z,8.55
2022-09-07T17:51:33.438Z,10.25
2022-09-07T17:54:25.852Z,8.10
2022-09-07T17:57:17.575Z,11.73
2022-09-07T18:00:11.859Z,10.95
2022-09-07T18:03:04.004Z,12.25
2022-09-07T18:05:57.237Z,14.73
2022-09-07T18:08:49.651Z,10.15
2022-09-07T18:11:47.153Z,10.50
2022-09-07T18:14:39.695Z,11.23
2022-09-07T18:17:32.032Z,11.38
2022-09-07T18:20:24.292Z,9.45
2022-09-07T18:23:17.265Z,13.88
2022-09-07T18:26:09.437Z,10.18
2022-09-07T18:29:08.390Z,12.18
2022-09-07T18:32:08.942Z,14.93
2022-09-07T18:35:01.116Z,11.02
2022-09-07T18:37:52.896Z,12.93
2022-09-07T18:40:45.562Z,10.95
2022-09-07T18:43:38.932Z,13.27
2022-09-07T18:46:30.557Z,14.02
2022-09-07T18:49:22.496Z,10.50
2022-09-07T18:55:25.702Z,10.75
2022-09-07T18:58:18.713Z,12.65
2022-09-07T19:01:12.988Z,18.50
2022-09-07T19:04:05.954Z,15.80
2022-09-07T19:06:57.795Z,12.15
2022-09-07T19:09:49.356Z,14.43
2022-09-07T19:12:45.473Z,12.75
2022-09-07T19:15:39.005Z,14.77
2022-09-07T19:18:30.538Z,13.18
2022-09-07T19:21:24.130Z,11.18
2022-09-07T19:24:18.250Z,12.18
2022-09-07T19:27:09.698Z,15.73
2022-09-07T19:30:01.734Z,10.90
2022-09-07T19:32:54.866Z,14.15
2022-09-07T19:35:46.874Z,12.43
2022-09-07T19:38:38.418Z,12.10
2022-09-07T19:41:30.342Z,10.90
2022-09-07T19:44:21.754Z,12.57
2022-09-07T19:47:13.678Z,11.88
2022-09-07T19:50:07.530Z,13.73
2022-09-07T19:52:59.359Z,14.85
2022-09-07T19:55:51.006Z,16.88
2022-09-07T19:58:44.374Z,14.45
2022-09-07T20:01:36.439Z,15.32
2022-09-07T20:04:28.344Z,13.30
2022-09-07T20:07:21.299Z,17.02
2022-09-07T20:10:12.980Z,11.73
2022-09-07T20:13:04.770Z,11.13
2022-09-07T20:15:56.631Z,13.85
2022-09-07T20:18:48.758Z,17.88
2022-09-07T20:21:40.530Z,16.60
2022-09-07T20:24:35.237Z,15.10
2022-09-07T20:27:26.693Z,12.30
2022-09-07T20:30:18.720Z,13.93
2022-09-07T20:33:10.386Z,13.38
2022-09-07T20:36:05.452Z,13.32
2022-09-07T20:38:57.895Z,12.25
2022-09-07T20:41:50.971Z,15.95
2022-09-07T20:44:42.855Z,14.82
2022-09-07T20:47:34.235Z,11.65
2022-09-07T20:50:26.126Z,12.40
2022-09-07T20:53:17.672Z,18.30
2022-09-07T20:56:12.513Z,14.20
2022-09-07T20:59:06.781Z,15.23
2022-09-07T21:01:58.606Z,11.95
2022-09-07T21:04:49.966Z,12.75
2022-09-07T21:07:42.257Z,16.30
2022-09-07T21:10:33.960Z,14.32
2022-09-07T21:13:25.890Z,14.27
2022-09-07T21:16:18.932Z,12.95
2022-09-07T21:19:12.077Z,13.25
2022-09-07T21:22:03.667Z,15.43
2022-09-07T21:24:55.226Z,12.75
2022-09-07T21:27:46.679Z,17.88
2022-09-07T21:30:38.298Z,13.52
2022-09-07T21:33:34.926Z,15.25
2022-09-07T21:36:27.679Z,14.07
2022-09-07T21:39:20.833Z,15.82
2022-09-07T21:42:12.636Z,13.90
2022-09-07T21:45:04.440Z,11.93
2022-09-07T21:47:56.091Z,13.32
2022-09-07T21:50:49.055Z,13.52
2022-09-07T21:53:40.745Z,18.23
2022-09-07T21:56:32.718Z,16.70
2022-09-07T21:59:24.263Z,12.93
2022-09-07T22:02:15.675Z,13.05
2022-09-07T22:05:08.108Z,13.05
2022-09-07T22:08:00.865Z,13.40
2022-09-07T22:10:52.561Z,12.70
2022-09-07T22:13:44.748Z,13.60
2022-09-07T22:16:36.528Z,15.55
2022-09-07T22:19:27.838Z,13.80
2022-09-07T22:22:19.684Z,15.57
2022-09-07T22:25:12.284Z,13.93
2022-09-07T22:28:04.283Z,14.10
2022-09-07T22:30:56.066Z,11.93
2022-09-07T22:33:49.407Z,13.75
2022-09-07T22:36:43.090Z,14.73
2022-09-07T22:39:34.753Z,14.55
2022-09-07T22:42:27.455Z,14.73
2022-09-07T22:45:19.368Z,16.17
2022-09-07T22:48:11.018Z,15.98
2022-09-07T22:51:03.624Z,14.60
2022-09-07T22:53:56.226Z,13.88
2022-09-07T22:56:47.868Z,14.77
2022-09-07T22:59:40.759Z,13.18
2022-09-07T23:02:32.686Z,15.40
2022-09-07T23:05:24.412Z,15.98
2022-09-07T23:08:16.351Z,17.23
2022-09-07T23:11:07.992Z,15.13
2022-09-07T23:14:01.896Z,14.57
2022-09-07T23:16:54.908Z,16.80
2022-09-07T23:19:46.475Z,18.83
2022-09-07T23:22:37.805Z,18.25
2022-09-07T23:25:29.883Z,15.15
2022-09-07T23:28:21.378Z,18.20
2022-09-07T23:31:13.627Z,16.08
2022-09-07T23:34:06.811Z,17.00
2022-09-07T23:36:58.252Z,16.85
2022-09-07T23:39:49.697Z,17.33
2022-09-07T23:42:41.661Z,15.10
2022-09-07T23:45:33.223Z,17.10
2022-09-07T23:48:25.116Z,14.93
2022-09-07T23:51:23.576Z,15.68
2022-09-07T23:54:15.840Z,15.73
2022-09-07T23:57:07.194Z,18.77
2022-09-07T23:59:59.200Z,16.30
